Time;durP1;ratioP1;P1;durP2;ratioP2;P2;SDS_P1;SDS_P2;PMS_P1;PMS_P2;Temp;Humidity;BMP_temperature;BMP_pressure;BME280_temperature;BME280_humidity;BME280_pressure;Samples;Min_cycle;Max_cycle;Signal;HPM_P1;HPM_P2
2022/03/23 00:01:23;;;;;;;;;;;;;;;9.49;33.17;101478.81;4426896;32;20334;-73
2022/03/23 00:03:50;;;;;;;;;;;;;;;9.55;33.84;101484.28;4417392;32;19981;-73
2022/03/23 00:06:17;;;;;;;;;;;;;;;9.45;33.78;101473.44;4420760;32;20037;-74
2022/03/23 00:08:45;;;;;;;;;;;;;;;9.28;33.75;101473.56;4403995;32;19993;-74
2022/03/23 00:11:12;;;;;;;;;;;;;;;9.42;33.98;101475.91;4412675;32;19982;-74
2022/03/23 00:13:40;;;;;;;;;;;;;;;9.55;33.62;101478.22;4433092;32;20035;-74
2022/03/23 00:16:07;;;;;;;;;;;;;;;9.43;33.80;101475.06;4430290;32;20036;-74
2022/03/23 00:18:34;;;;;;;;;;;;;;;9.29;33.86;101470.13;4443175;32;20019;-74
2022/03/23 00:21:01;;;;;;;;;;;;;;;9.45;33.51;101474.34;4442921;32;19989;-73
2022/03/23 00:23:27;;;;;;;;;;;;;;;9.37;34.55;101472.19;4441822;32;19993;-74
2022/03/23 00:25:55;;;;;;;;;;;;;;;9.11;34.69;101470.97;4428813;32;19992;-74
2022/03/23 00:28:23;;;;;;;;;;;;;;;9.31;34.14;101465.03;4459050;32;20000;-74
2022/03/23 00:30:50;;;;;;;;;;;;;;;9.43;34.43;101467.31;4456773;32;20024;-74
2022/03/23 00:33:29;;;;;;;;;;;;;;;9.15;34.26;101463.41;4437695;32;19980;-73
2022/03/23 00:35:55;;;;;;;;;;;;;;;9.14;34.22;101459.06;4447174;32;20050;-73
2022/03/23 00:38:22;;;;;;;;;;;;;;;9.12;34.81;101458.09;4447420;32;20000;-74
2022/03/23 00:40:50;;;;;;;;;;;;;;;9.21;34.62;101455.97;4452059;32;20014;-74
2022/03/23 00:43:17;;;;;;;;;;;;;;;9.07;34.61;101463.06;4458818;32;20030;-74
2022/03/23 00:45:44;;;;;;;;;;;;;;;9.05;34.72;101459.50;4458549;32;19992;-74
2022/03/23 00:48:11;;;;;;;;;;;;;;;9.08;34.79;101458.78;4458405;32;20006;-73
2022/03/23 00:50:38;;;;;;;;;;;;;;;9.18;34.95;101455.81;4459299;32;20732;-75
2022/03/23 00:53:04;;;;;;;;;;;;;;;9.07;34.93;101451.84;4459067;32;19981;-74
2022/03/23 00:55:31;;;;;;;;;;;;;;;9.22;34.79;101457.75;4434295;32;20295;-74
2022/03/23 00:57:59;;;;;;;;;;;;;;;9.19;34.57;101452.44;4430006;32;19993;-75
2022/03/23 01:00:26;;;;;;;;;;;;;;;8.97;34.85;101450.53;4443175;32;20350;-74
2022/03/23 01:02:53;;;;;;;;;;;;;;;9.11;35.08;101442.53;4457814;32;19985;-74
2022/03/23 01:05:20;;;;;;;;;;;;;;;8.96;34.83;101453.91;4457725;32;20011;-74
2022/03/23 01:07:47;;;;;;;;;;;;;;;8.88;35.09;101447.50;4458393;32;19981;-74
2022/03/23 01:10:14;;;;;;;;;;;;;;;8.95;35.13;101440.91;4458999;32;20000;-73
2022/03/23 01:12:43;;;;;;;;;;;;;;;8.71;35.68;101457.00;4457317;32;20040;-74
2022/03/23 01:15:10;;;;;;;;;;;;;;;8.64;36.02;101444.56;4458819;32;20019;-74
2022/03/23 01:17:37;;;;;;;;;;;;;;;8.33;35.83;101458.50;4457574;32;20646;-73
2022/03/23 01:20:05;;;;;;;;;;;;;;;8.38;36.40;101446.72;4459221;32;20755;-74
2022/03/23 01:22:32;;;;;;;;;;;;;;;8.49;35.81;101449.00;4458978;32;19981;-73
2022/03/23 01:24:59;;;;;;;;;;;;;;;8.52;36.07;101438.78;4443384;32;19981;-73
2022/03/23 01:27:26;;;;;;;;;;;;;;;8.53;35.89;101445.75;4458958;32;20008;-74
2022/03/23 01:29:54;;;;;;;;;;;;;;;8.41;36.41;101435.69;4459348;32;19989;-73
2022/03/23 01:32:21;;;;;;;;;;;;;;;8.27;36.61;101439.25;4458888;32;19989;-73
2022/03/23 01:34:48;;;;;;;;;;;;;;;8.28;36.82;101434.16;4458727;32;20038;-74
2022/03/23 01:37:17;;;;;;;;;;;;;;;8.19;36.87;101432.78;4458966;32;20045;-74
2022/03/23 01:39:44;;;;;;;;;;;;;;;8.17;36.92;101425.00;4457257;32;19992;-75
2022/03/23 01:42:11;;;;;;;;;;;;;;;8.29;36.76;101430.75;4458419;32;20907;-74
2022/03/23 01:44:38;;;;;;;;;;;;;;;8.16;36.57;101426.66;4458566;32;19996;-74
2022/03/23 01:47:06;;;;;;;;;;;;;;;8.27;37.03;101427.22;4458701;32;20115;-74
2022/03/23 01:49:34;;;;;;;;;;;;;;;8.25;36.63;101434.00;4458428;32;20023;-75
2022/03/23 01:52:01;;;;;;;;;;;;;;;8.22;36.43;101427.78;4457124;32;20007;-73
2022/03/23 01:54:30;;;;;;;;;;;;;;;8.02;37.22;101427.66;4454383;32;19996;-74
2022/03/23 01:56:57;;;;;;;;;;;;;;;7.90;37.25;101425.31;4460579;32;19992;-74
2022/03/23 01:59:24;;;;;;;;;;;;;;;8.15;36.67;101421.44;4460743;32;19996;-74
2022/03/23 02:01:52;;;;;;;;;;;;;;;8.06;36.72;101421.84;4456920;32;19988;-73
2022/03/23 02:04:19;;;;;;;;;;;;;;;8.07;36.64;101427.88;4460750;32;19981;-74
2022/03/23 02:06:48;;;;;;;;;;;;;;;8.08;37.67;101419.34;4460436;32;19981;-74
2022/03/23 02:09:18;;;;;;;;;;;;;;;8.09;37.07;101423.69;4460059;32;19988;-75
2022/03/23 02:11:46;;;;;;;;;;;;;;;8.04;36.60;101427.72;4461018;32;19977;-74
2022/03/23 02:14:13;;;;;;;;;;;;;;;7.93;37.24;101425.47;4460416;32;20003;-75
2022/03/23 02:16:41;;;;;;;;;;;;;;;8.01;36.91;101423.31;4457944;32;20007;-75
2022/03/23 02:19:08;;;;;;;;;;;;;;;7.87;37.39;101420.00;4460466;32;19991;-75
2022/03/23 02:21:35;;;;;;;;;;;;;;;7.95;36.93;101423.00;4458410;32;20003;-74
2022/03/23 02:24:04;;;;;;;;;;;;;;;7.99;37.27;101424.91;4457056;32;20119;-75
2022/03/23 02:26:31;;;;;;;;;;;;;;;7.70;37.65;101420.81;4443980;32;19982;-73
2022/03/23 02:28:59;;;;;;;;;;;;;;;7.75;37.23;101424.50;4291074;32;5000925;-73
2022/03/23 02:31:26;;;;;;;;;;;;;;;7.91;37.29;101421.97;4445388;32;19991;-74
2022/03/23 02:33:53;;;;;;;;;;;;;;;7.90;37.23;101424.44;4456340;32;19989;-74
2022/03/23 02:36:21;;;;;;;;;;;;;;;7.88;36.75;101421.78;4447375;32;19973;-74
2022/03/23 02:38:48;;;;;;;;;;;;;;;7.84;36.98;101419.84;4460655;32;19973;-73
2022/03/23 02:41:15;;;;;;;;;;;;;;;7.83;37.15;101423.22;4460459;32;19995;-73
2022/03/23 02:43:41;;;;;;;;;;;;;;;7.81;37.41;101423.94;4458985;32;20027;-73
2022/03/23 02:46:15;;;;;;;;;;;;;;;7.77;37.68;101433.22;4460744;32;20028;-73
2022/03/23 02:48:42;;;;;;;;;;;;;;;7.78;37.40;101424.66;4457565;32;19981;-73
2022/03/23 02:51:09;;;;;;;;;;;;;;;7.85;37.25;101421.62;4459036;32;20556;-73
2022/03/23 03:02:16;;;;;;;;;;;;;;;7.58;37.43;101422.75;4444972;32;19969;-74
2022/03/23 03:04:43;;;;;;;;;;;;;;;7.49;37.70;101429.97;4459960;32;20401;-74
2022/03/23 03:07:10;;;;;;;;;;;;;;;7.54;37.47;101418.22;4459332;32;20266;-73
2022/03/23 03:09:37;;;;;;;;;;;;;;;7.78;37.41;101432.41;4459947;32;20026;-74
2022/03/23 03:12:04;;;;;;;;;;;;;;;7.59;37.57;101416.78;4459985;32;19981;-74
2022/03/23 03:14:31;;;;;;;;;;;;;;;7.70;37.78;101420.81;4460604;32;20251;-74
2022/03/23 03:16:58;;;;;;;;;;;;;;;7.60;37.75;101434.03;4445235;32;20019;-74
2022/03/23 03:19:25;;;;;;;;;;;;;;;7.29;38.31;101424.63;4460548;32;19985;-73
2022/03/23 03:21:53;;;;;;;;;;;;;;;7.59;37.50;101433.09;4458658;32;19977;-74
2022/03/23 03:24:20;;;;;;;;;;;;;;;7.57;37.90;101426.13;4458231;32;19985;-73
2022/03/23 03:26:47;;;;;;;;;;;;;;;7.59;38.15;101427.06;4453257;32;20003;-74
2022/03/23 03:29:14;;;;;;;;;;;;;;;7.50;38.02;101431.72;4460341;32;20247;-73
2022/03/23 03:31:41;;;;;;;;;;;;;;;7.58;38.22;101422.75;4446154;32;20004;-73
2022/03/23 03:34:08;;;;;;;;;;;;;;;7.48;38.23;101425.62;4458310;32;19989;-73
2022/03/23 03:36:36;;;;;;;;;;;;;;;7.50;37.81;101421.44;4442721;32;20000;-74
2022/03/23 03:39:06;;;;;;;;;;;;;;;7.51;38.15;101418.94;4441863;32;20373;-75
2022/03/23 03:41:33;;;;;;;;;;;;;;;7.61;37.83;101420.31;4445325;32;20026;-74
2022/03/23 03:44:00;;;;;;;;;;;;;;;7.43;37.89;101415.97;4458659;32;19988;-73
2022/03/23 03:46:27;;;;;;;;;;;;;;;7.24;38.09;101415.75;4441131;32;20013;-73
2022/03/23 03:48:53;;;;;;;;;;;;;;;7.36;38.22;101411.25;4456216;32;19977;-74
2022/03/23 03:51:21;;;;;;;;;;;;;;;7.35;38.33;101414.66;4459950;32;19969;-74
2022/03/23 03:53:49;;;;;;;;;;;;;;;7.50;38.45;101416.28;4456467;32;20001;-74
2022/03/23 03:56:16;;;;;;;;;;;;;;;7.18;38.32;101408.59;4454714;32;20732;-73
2022/03/23 03:58:43;;;;;;;;;;;;;;;7.14;38.74;101418.62;4441358;32;19989;-73
2022/03/23 04:01:10;;;;;;;;;;;;;;;7.25;38.69;101417.53;4459841;32;20026;-73
2022/03/23 04:03:37;;;;;;;;;;;;;;;7.25;38.38;101420.13;4447804;32;19985;-73
2022/03/23 04:06:04;;;;;;;;;;;;;;;7.17;38.49;101417.09;4445094;32;20030;-73
2022/03/23 04:08:31;;;;;;;;;;;;;;;7.22;38.58;101422.53;4456345;32;20041;-73
2022/03/23 04:10:58;;;;;;;;;;;;;;;7.25;38.23;101420.13;4458350;32;19991;-73
2022/03/23 04:13:25;;;;;;;;;;;;;;;7.25;37.96;101422.69;4459929;32;19996;-73
2022/03/23 04:15:52;;;;;;;;;;;;;;;7.20;38.34;101417.28;4459423;32;20341;-73
2022/03/23 04:18:19;;;;;;;;;;;;;;;7.07;38.69;101419.97;4459125;32;20412;-73
2022/03/23 04:20:47;;;;;;;;;;;;;;;7.18;38.28;101412.87;4458637;32;19977;-73
2022/03/23 04:23:14;;;;;;;;;;;;;;;7.02;38.77;101425.66;4452337;32;19988;-73
2022/03/23 04:25:41;;;;;;;;;;;;;;;7.15;38.88;101417.84;4460412;32;19995;-73
2022/03/23 04:28:07;;;;;;;;;;;;;;;7.10;39.11;101419.25;4460262;32;20024;-73
2022/03/23 04:30:34;;;;;;;;;;;;;;;6.88;38.97;101417.19;4459056;32;20349;-73
2022/03/23 04:33:01;;;;;;;;;;;;;;;7.08;38.51;101415.72;4445868;32;19981;-73
2022/03/23 04:35:28;;;;;;;;;;;;;;;6.91;38.51;101418.22;4459253;32;19997;-73
2022/03/23 04:37:55;;;;;;;;;;;;;;;6.89;38.73;101414.72;4430704;32;20056;-73
2022/03/23 04:40:23;;;;;;;;;;;;;;;6.97;38.69;101416.00;4456060;32;20034;-73
2022/03/23 04:42:49;;;;;;;;;;;;;;;6.94;38.84;101413.25;4445035;32;19996;-73
2022/03/23 04:45:16;;;;;;;;;;;;;;;6.82;39.30;101417.72;4459922;32;20038;-73
2022/03/23 04:47:44;;;;;;;;;;;;;;;6.76;38.87;101417.34;4458493;32;19999;-73
2022/03/23 04:50:11;;;;;;;;;;;;;;;6.70;39.27;101422.16;4459434;32;19996;-73
2022/03/23 04:52:39;;;;;;;;;;;;;;;6.80;39.26;101414.19;4456960;32;19988;-73
2022/03/23 04:55:06;;;;;;;;;;;;;;;6.83;39.20;101427.22;4459111;32;19988;-73
2022/03/23 04:57:33;;;;;;;;;;;;;;;6.74;39.78;101425.00;4455044;32;19997;-73
2022/03/23 05:00:00;;;;;;;;;;;;;;;6.79;39.63;101429.53;4457689;32;20243;-73
2022/03/23 05:02:28;;;;;;;;;;;;;;;7.19;38.74;101427.50;4459488;32;20314;-73
2022/03/23 05:04:55;;;;;;;;;;;;;;;6.97;39.44;101430.56;4457696;32;19984;-74
2022/03/23 05:07:22;;;;;;;;;;;;;;;6.97;38.82;101428.88;4459488;32;19997;-72
2022/03/23 05:09:49;;;;;;;;;;;;;;;6.86;39.44;101429.97;4458648;32;20722;-73
2022/03/23 05:12:16;;;;;;;;;;;;;;;6.89;39.18;101440.44;4121160;32;10003864;-73
2022/03/23 05:14:42;;;;;;;;;;;;;;;7.05;38.72;101441.28;4428540;32;19990;-73
2022/03/23 05:17:09;;;;;;;;;;;;;;;7.07;39.02;101447.41;4428249;32;20000;-73
2022/03/23 05:19:36;;;;;;;;;;;;;;;7.14;39.21;101446.94;4426307;32;19981;-70
2022/03/23 05:22:03;;;;;;;;;;;;;;;7.32;38.77;101458.28;4426514;32;19988;-72
2022/03/23 05:24:31;;;;;;;;;;;;;;;7.29;38.41;101447.81;4412998;32;19990;-74
2022/03/23 05:26:58;;;;;;;;;;;;;;;7.28;38.73;101456.34;4418079;32;19985;-74
2022/03/23 05:29:24;;;;;;;;;;;;;;;7.33;38.26;101464.31;4428299;32;19985;-72
2022/03/23 05:31:52;;;;;;;;;;;;;;;7.31;38.96;101456.50;4428328;32;19982;-72
2022/03/23 05:34:18;;;;;;;;;;;;;;;7.54;39.00;101451.72;4430212;32;19990;-73
2022/03/23 05:36:45;;;;;;;;;;;;;;;7.64;38.88;101451.41;4429125;32;19981;-75
2022/03/23 05:39:12;;;;;;;;;;;;;;;7.75;38.76;101450.28;4430253;32;19982;-73
2022/03/23 05:41:39;;;;;;;;;;;;;;;8.01;38.65;101450.78;4417197;32;20048;-73
2022/03/23 05:44:07;;;;;;;;;;;;;;;8.16;38.51;101443.84;4461026;32;20032;-72
2022/03/23 05:46:34;;;;;;;;;;;;;;;8.18;38.82;101446.50;4461533;32;19988;-73
2022/03/23 05:49:01;;;;;;;;;;;;;;;8.30;38.20;101440.28;4458144;32;20028;-73
2022/03/23 05:51:27;;;;;;;;;;;;;;;8.46;38.51;101438.53;4453396;32;20965;-73
2022/03/23 05:53:54;;;;;;;;;;;;;;;8.74;38.09;101441.66;4457113;32;19988;-75
2022/03/23 05:56:21;;;;;;;;;;;;;;;9.07;38.12;101441.50;4459138;32;19993;-75
2022/03/23 05:58:48;;;;;;;;;;;;;;;9.46;37.06;101436.44;4459409;32;20067;-75
2022/03/23 06:01:15;;;;;;;;;;;;;;;9.81;36.82;101439.75;4460091;32;20374;-74
2022/03/23 06:03:42;;;;;;;;;;;;;;;10.11;36.23;101441.09;4459095;32;19989;-75
2022/03/23 06:06:10;;;;;;;;;;;;;;;10.30;35.74;101447.09;4460763;32;19992;-75
2022/03/23 06:08:37;;;;;;;;;;;;;;;10.51;35.17;101435.06;4459353;32;19991;-75
2022/03/23 06:11:04;;;;;;;;;;;;;;;10.73;31.87;101439.44;4458557;32;19987;-75
2022/03/23 06:13:31;;;;;;;;;;;;;;;11.13;29.94;101436.72;4460620;32;19989;-74
2022/03/23 06:15:58;;;;;;;;;;;;;;;11.54;29.00;101440.03;4453579;32;19995;-75
2022/03/23 06:18:25;;;;;;;;;;;;;;;11.66;28.80;101441.34;4451210;32;19980;-75
2022/03/23 06:20:53;;;;;;;;;;;;;;;11.91;28.26;101436.25;4449991;32;19996;-73
2022/03/23 06:23:20;;;;;;;;;;;;;;;12.14;27.87;101428.41;4444797;32;20350;-75
2022/03/23 06:25:46;;;;;;;;;;;;;;;12.33;28.59;101430.81;4444834;32;20130;-73
2022/03/23 06:28:13;;;;;;;;;;;;;;;12.69;27.26;101432.88;4454116;32;20045;-74
2022/03/23 06:30:40;;;;;;;;;;;;;;;12.86;26.96;101431.75;4448452;32;19992;-73
2022/03/23 06:33:07;;;;;;;;;;;;;;;13.12;27.16;101427.34;4444502;32;20056;-74
2022/03/23 06:35:35;;;;;;;;;;;;;;;13.23;26.36;101430.28;4458440;32;20261;-73
2022/03/23 06:38:02;;;;;;;;;;;;;;;13.39;26.26;101429.06;4458091;32;19981;-73
2022/03/23 06:40:29;;;;;;;;;;;;;;;13.55;25.65;101428.69;4458822;32;20772;-73
2022/03/23 06:42:56;;;;;;;;;;;;;;;13.54;25.22;101432.12;4445013;32;20013;-72
2022/03/23 06:45:23;;;;;;;;;;;;;;;13.90;25.28;101434.91;4459036;32;20003;-72
2022/03/23 06:47:50;;;;;;;;;;;;;;;14.32;23.80;101436.91;4424812;32;19992;-73
2022/03/23 06:50:17;;;;;;;;;;;;;;;14.51;24.07;101437.41;4459403;32;19988;-72
2022/03/23 06:52:44;;;;;;;;;;;;;;;14.75;24.01;101440.66;4450051;32;20040;-74
2022/03/23 06:55:11;;;;;;;;;;;;;;;15.00;24.32;101441.25;4451330;32;20429;-74
2022/03/23 06:57:37;;;;;;;;;;;;;;;15.47;23.16;101437.09;4441901;32;20015;-73
2022/03/23 07:00:12;;;;;;;;;;;;;;;15.62;22.61;101433.06;4446416;32;20016;-73
2022/03/23 07:02:40;;;;;;;;;;;;;;;16.05;22.12;101429.63;4443175;32;20043;-72
2022/03/23 07:05:08;;;;;;;;;;;;;;;16.37;21.11;101429.31;4440555;32;20248;-72
2022/03/23 07:07:36;;;;;;;;;;;;;;;16.43;21.06;101429.41;4448053;32;19985;-72
2022/03/23 07:10:03;;;;;;;;;;;;;;;16.98;21.06;101433.00;4443168;32;19981;-72
2022/03/23 07:12:30;;;;;;;;;;;;;;;17.49;20.68;101439.84;4459040;32;19997;-72
2022/03/23 07:14:57;;;;;;;;;;;;;;;17.81;19.97;101436.78;4458878;32;19980;-72
2022/03/23 07:17:24;;;;;;;;;;;;;;;18.07;19.29;101429.22;4456623;32;20400;-72
2022/03/23 07:19:51;;;;;;;;;;;;;;;18.17;19.40;101435.44;4458757;32;20009;-73
2022/03/23 07:22:18;;;;;;;;;;;;;;;18.36;18.99;101437.37;4459363;32;19997;-73
2022/03/23 07:24:45;;;;;;;;;;;;;;;18.48;19.12;101442.75;4458422;32;20282;-74
2022/03/23 07:27:11;;;;;;;;;;;;;;;18.55;19.77;101436.69;4458703;32;19992;-74
2022/03/23 07:29:46;;;;;;;;;;;;;;;19.00;19.28;101435.34;4435056;32;782431;-74
2022/03/23 07:32:12;;;;;;;;;;;;;;;19.67;17.97;101436.63;4459194;32;20819;-76
2022/03/23 07:34:39;;;;;;;;;;;;;;;19.80;17.71;101433.16;4459964;32;19984;-73
2022/03/23 07:37:06;;;;;;;;;;;;;;;19.83;17.79;101430.56;4452780;32;19991;-74
2022/03/23 07:39:33;;;;;;;;;;;;;;;20.09;17.04;101430.63;4443709;32;19999;-73
2022/03/23 07:42:02;;;;;;;;;;;;;;;20.12;17.68;101427.13;4459435;32;20005;-74
2022/03/23 07:44:29;;;;;;;;;;;;;;;20.16;17.42;101421.00;4442977;32;20019;-74
2022/03/23 07:46:56;;;;;;;;;;;;;;;20.74;16.98;101421.09;4460017;32;19992;-75
2022/03/23 07:49:23;;;;;;;;;;;;;;;20.57;16.92;101422.84;4458486;32;20003;-75
2022/03/23 07:51:50;;;;;;;;;;;;;;;20.83;16.85;101421.06;4459186;32;19985;-75
2022/03/23 07:54:17;;;;;;;;;;;;;;;20.68;16.77;101415.84;4451762;32;19996;-75
2022/03/23 07:56:44;;;;;;;;;;;;;;;21.02;16.82;101418.41;4444384;32;20366;-73
2022/03/23 07:59:11;;;;;;;;;;;;;;;21.17;16.68;101421.03;4454177;32;19985;-74
2022/03/23 08:01:38;;;;;;;;;;;;;;;21.27;16.39;101422.75;4459915;32;19976;-76
2022/03/23 08:04:05;;;;;;;;;;;;;;;21.21;16.60;101406.97;4459296;32;20322;-74
2022/03/23 08:06:35;;;;;;;;;;;;;;;21.08;16.28;101426.31;4458787;32;20006;-74
2022/03/23 08:09:03;;;;;;;;;;;;;;;21.12;16.57;101422.78;4459154;32;20018;-74
2022/03/23 08:11:31;;;;;;;;;;;;;;;20.88;16.96;101419.31;4456862;32;20435;-76
2022/03/23 08:13:57;;;;;;;;;;;;;;;21.10;16.29;101419.28;4460278;32;20038;-74
2022/03/23 08:16:24;;;;;;;;;;;;;;;20.73;16.78;101413.19;4456538;32;20001;-74
2022/03/23 08:18:54;;;;;;;;;;;;;;;20.76;16.42;101414.06;4459511;32;19969;-76
2022/03/23 08:21:22;;;;;;;;;;;;;;;20.87;16.55;101417.56;4460096;32;20000;-74
2022/03/23 08:23:49;;;;;;;;;;;;;;;20.57;16.86;101418.44;4459656;32;20028;-74
2022/03/23 08:26:17;;;;;;;;;;;;;;;20.63;17.00;101428.09;4457887;32;19981;-75
2022/03/23 08:28:44;;;;;;;;;;;;;;;20.93;17.08;101415.78;4446517;32;19985;-77
2022/03/23 08:31:11;;;;;;;;;;;;;;;21.16;17.16;101419.28;4429841;32;20026;-76
2022/03/23 08:33:39;;;;;;;;;;;;;;;21.37;16.49;101413.97;4429978;32;20480;-77
2022/03/23 08:36:07;;;;;;;;;;;;;;;21.27;16.88;101412.22;4444120;32;20811;-77
2022/03/23 08:38:34;;;;;;;;;;;;;;;21.39;16.52;101415.75;4452301;32;19976;-76
2022/03/23 08:41:02;;;;;;;;;;;;;;;21.58;16.13;101414.78;4459614;32;19988;-74
2022/03/23 08:43:28;;;;;;;;;;;;;;;21.64;16.23;101417.41;4459543;32;20746;-77
2022/03/23 08:45:55;;;;;;;;;;;;;;;21.96;16.05;101413.72;4457788;32;20003;-74
2022/03/23 08:48:22;;;;;;;;;;;;;;;22.14;16.30;101418.88;4443851;32;20340;-77
2022/03/23 08:50:50;;;;;;;;;;;;;;;22.01;15.73;101422.47;4458887;32;20000;-73
2022/03/23 08:53:17;;;;;;;;;;;;;;;22.20;15.38;101416.22;4458340;32;19992;-76
2022/03/23 08:55:44;;;;;;;;;;;;;;;22.05;16.04;101424.22;4457096;32;19985;-75
2022/03/23 08:58:11;;;;;;;;;;;;;;;22.32;14.85;101411.78;4430565;32;20239;-74
2022/03/23 09:00:44;;;;;;;;;;;;;;;22.42;14.91;101414.31;4459299;32;20007;-77
2022/03/23 09:03:11;;;;;;;;;;;;;;;21.73;15.50;101412.09;4428472;32;20306;-78
2022/03/23 09:05:39;;;;;;;;;;;;;;;21.81;15.87;101409.41;4444796;32;19976;-74
2022/03/23 09:08:07;;;;;;;;;;;;;;;21.95;15.86;101411.97;4450979;32;19981;-77
2022/03/23 09:10:34;;;;;;;;;;;;;;;22.45;15.44;101403.75;4419147;32;20423;-74
2022/03/23 09:13:01;;;;;;;;;;;;;;;22.32;15.31;101401.22;4442619;32;20005;-74
2022/03/23 09:15:28;;;;;;;;;;;;;;;22.65;15.32;101405.34;4443787;32;20318;-76
2022/03/23 09:17:58;;;;;;;;;;;;;;;22.81;15.38;101400.81;4443922;32;21196;-76
2022/03/23 09:20:28;;;;;;;;;;;;;;;22.57;15.40;101397.50;4448194;32;19996;-74
2022/03/23 09:22:56;;;;;;;;;;;;;;;22.92;15.10;101401.59;4457865;32;20326;-74
2022/03/23 09:25:23;;;;;;;;;;;;;;;22.95;14.94;101398.94;4445056;32;20642;-73
2022/03/23 09:27:50;;;;;;;;;;;;;;;23.01;14.74;101398.88;4457927;32;19989;-74
2022/03/23 09:30:17;;;;;;;;;;;;;;;22.46;16.59;101394.06;4458675;32;19985;-77
2022/03/23 09:32:46;;;;;;;;;;;;;;;23.12;14.67;101388.19;4459492;32;20011;-76
2022/03/23 09:35:13;;;;;;;;;;;;;;;23.34;14.56;101392.34;4458139;32;19996;-75
2022/03/23 09:37:50;;;;;;;;;;;;;;;23.82;13.36;101394.41;4457570;32;19983;-76
2022/03/23 09:40:27;;;;;;;;;;;;;;;22.87;16.82;101390.19;4443254;32;20052;-74
2022/03/23 09:43:00;;;;;;;;;;;;;;;23.45;14.32;101389.56;4443256;32;19994;-77
2022/03/23 09:48:14;;;;;;;;;;;;;;;23.72;13.70;101382.22;4448163;32;20003;-74
2022/03/23 09:50:42;;;;;;;;;;;;;;;23.85;13.82;101374.09;4458791;32;19995;-74
2022/03/23 09:53:09;;;;;;;;;;;;;;;23.49;14.12;101380.72;4458286;32;20020;-73
2022/03/23 09:55:36;;;;;;;;;;;;;;;23.70;13.82;101378.72;4457943;32;19985;-74
2022/03/23 09:58:04;;;;;;;;;;;;;;;23.59;13.48;101379.72;4444669;32;19976;-74
2022/03/23 10:00:38;;;;;;;;;;;;;;;23.69;13.52;101382.25;4458554;32;19989;-73
2022/03/23 10:03:09;;;;;;;;;;;;;;;23.91;13.00;101373.13;4456524;32;20003;-73
2022/03/23 10:05:57;;;;;;;;;;;;;;;24.08;12.94;101371.09;4339580;32;20054;-74
2022/03/23 10:08:43;;;;;;;;;;;;;;;24.25;13.18;101364.66;4428490;32;20822;-73
2022/03/23 10:11:42;;;;;;;;;;;;;;;24.07;13.07;101358.78;4415923;32;20037;-74
2022/03/23 10:14:28;;;;;;;;;;;;;;;24.27;12.74;101362.87;4444116;32;20789;-73
2022/03/23 10:17:06;;;;;;;;;;;;;;;24.06;12.93;101362.34;4445209;32;19989;-73
2022/03/23 10:19:33;;;;;;;;;;;;;;;24.22;12.25;101362.06;4444980;32;19985;-74
2022/03/23 10:22:08;;;;;;;;;;;;;;;23.71;12.98;101369.88;4445426;32;19993;-74
2022/03/23 10:24:35;;;;;;;;;;;;;;;23.44;13.53;101350.81;4445445;32;20004;-73
2022/03/23 10:27:06;;;;;;;;;;;;;;;23.89;13.24;101359.03;4443700;32;19989;-74
2022/03/23 10:29:32;;;;;;;;;;;;;;;23.85;13.12;101352.06;4445219;32;19976;-74
2022/03/23 10:32:00;;;;;;;;;;;;;;;23.40;13.22;101354.41;4442962;32;20008;-74
2022/03/23 10:34:36;;;;;;;;;;;;;;;23.79;12.76;101346.84;4425999;32;19989;-74
2022/03/23 10:37:03;;;;;;;;;;;;;;;24.04;12.45;101342.09;4443744;32;20737;-74
2022/03/23 10:39:30;;;;;;;;;;;;;;;23.82;13.30;101336.25;4443195;32;20348;-73
2022/03/23 10:41:58;;;;;;;;;;;;;;;24.01;12.88;101332.41;4456197;32;20035;-74
2022/03/23 10:44:25;;;;;;;;;;;;;;;24.06;12.93;101330.59;4457067;32;20430;-74
2022/03/23 10:46:53;;;;;;;;;;;;;;;24.27;12.73;101324.03;4444880;32;19992;-74
2022/03/23 10:49:29;;;;;;;;;;;;;;;23.95;12.88;101319.28;4455390;32;19985;-74
2022/03/23 10:52:05;;;;;;;;;;;;;;;24.11;13.17;101318.13;4444493;32;19993;-73
2022/03/23 10:54:32;;;;;;;;;;;;;;;24.06;12.82;101314.72;4445019;32;20405;-71
2022/03/23 10:56:59;;;;;;;;;;;;;;;23.72;12.22;101313.47;4445189;32;20000;-72
2022/03/23 10:59:26;;;;;;;;;;;;;;;23.57;12.67;101315.37;4444416;32;20318;-74
2022/03/23 11:02:02;;;;;;;;;;;;;;;24.08;12.18;101306.72;4444981;32;20694;-74
2022/03/23 11:04:30;;;;;;;;;;;;;;;24.29;12.73;101310.81;4444852;32;19984;-74
2022/03/23 11:06:58;;;;;;;;;;;;;;;24.23;12.31;101300.31;4437360;32;19995;-74
2022/03/23 11:18:04;;;;;;;;;;;;;;;24.46;12.01;101287.56;4445027;32;19989;-72
2022/03/23 11:20:41;;;;;;;;;;;;;;;24.41;11.88;101289.47;4455845;32;20026;-72
2022/03/23 11:23:23;;;;;;;;;;;;;;;24.35;12.15;101278.94;4444221;32;19992;-73
2022/03/23 11:25:50;;;;;;;;;;;;;;;24.45;11.65;101279.69;4454961;32;19996;-73
2022/03/23 11:28:17;;;;;;;;;;;;;;;24.49;11.54;101276.94;4458551;32;19977;-75
2022/03/23 11:30:45;;;;;;;;;;;;;;;24.30;12.10;101270.19;4449416;32;20019;-74
2022/03/23 11:33:12;;;;;;;;;;;;;;;24.12;11.69;101271.37;4442052;32;20301;-74
2022/03/23 11:35:47;;;;;;;;;;;;;;;24.49;11.76;101263.69;4430262;32;20393;-73
2022/03/23 11:38:18;;;;;;;;;;;;;;;24.49;11.90;101266.34;4444582;32;20034;-73
2022/03/23 11:40:47;;;;;;;;;;;;;;;24.35;11.91;101263.06;4444804;32;20341;-73
2022/03/23 11:43:15;;;;;;;;;;;;;;;24.61;11.22;101259.09;4443139;32;20119;-72
2022/03/23 11:46:02;;;;;;;;;;;;;;;24.54;11.60;101256.56;4444584;32;20016;-74
2022/03/23 11:48:48;;;;;;;;;;;;;;;24.59;11.32;101251.16;4442565;32;19973;-73
2022/03/23 11:51:24;;;;;;;;;;;;;;;24.47;11.50;101246.97;4443297;32;20347;-75
2022/03/23 11:54:14;;;;;;;;;;;;;;;24.27;11.63;101243.78;4444654;32;19985;-73
2022/03/23 11:56:51;;;;;;;;;;;;;;;24.67;11.80;101237.78;4414241;32;20068;-75
2022/03/23 11:59:24;;;;;;;;;;;;;;;24.63;12.04;101230.78;4429573;32;20020;-74
2022/03/23 12:01:51;;;;;;;;;;;;;;;24.54;11.67;101232.72;4429474;32;19973;-76
2022/03/23 12:04:19;;;;;;;;;;;;;;;24.56;11.54;101219.44;4426620;32;20005;-75
2022/03/23 12:06:49;;;;;;;;;;;;;;;24.72;11.32;101222.66;4444802;32;20042;-76
2022/03/23 12:09:29;;;;;;;;;;;;;;;24.58;11.13;101213.22;4429942;32;19985;-77
2022/03/23 12:11:57;;;;;;;;;;;;;;;24.74;11.38;101218.22;4442669;32;20787;-75
2022/03/23 12:14:36;;;;;;;;;;;;;;;24.29;12.48;101210.25;4443065;32;20020;-74
2022/03/23 12:17:07;;;;;;;;;;;;;;;24.36;11.00;101206.56;4443420;32;20021;-76
2022/03/23 12:19:50;;;;;;;;;;;;;;;24.24;11.96;101206.78;4442323;32;20404;-77
2022/03/23 12:22:18;;;;;;;;;;;;;;;23.60;11.96;101198.16;4444302;32;20403;-74
2022/03/23 12:24:56;;;;;;;;;;;;;;;23.32;13.12;101200.34;4442680;32;20000;-74
2022/03/23 12:27:32;;;;;;;;;;;;;;;23.39;12.60;101191.47;4441829;32;20416;-74
2022/03/23 12:29:59;;;;;;;;;;;;;;;23.50;13.08;101186.88;4443820;32;19985;-74
2022/03/23 12:32:35;;;;;;;;;;;;;;;23.64;12.81;101187.53;4441102;32;19989;-76
2022/03/23 12:35:02;;;;;;;;;;;;;;;23.54;12.37;101180.62;4438475;32;19989;-76
2022/03/23 12:37:35;;;;;;;;;;;;;;;23.85;13.19;101172.22;4434402;32;19989;-77
2022/03/23 12:40:06;;;;;;;;;;;;;;;24.32;11.61;101174.00;4438707;32;20756;-77
2022/03/23 12:42:34;;;;;;;;;;;;;;;24.05;10.96;101172.72;4432256;32;19982;-75
2022/03/23 12:45:07;;;;;;;;;;;;;;;24.26;11.26;101174.12;4419679;32;20373;-74
2022/03/23 12:47:35;;;;;;;;;;;;;;;24.22;10.78;101171.53;4440128;32;20418;-75
2022/03/23 12:58:42;;;;;;;;;;;;;;;23.70;11.37;101156.63;4441469;32;19989;-77
2022/03/23 13:01:10;;;;;;;;;;;;;;;24.01;11.84;101151.66;4440259;32;20001;-76
2022/03/23 13:03:47;;;;;;;;;;;;;;;24.37;10.52;101147.44;4435633;32;20342;-76
2022/03/23 13:06:15;;;;;;;;;;;;;;;24.35;10.36;101150.12;4439188;32;20012;-73
2022/03/23 13:08:47;;;;;;;;;;;;;;;24.65;10.33;101139.81;4438862;32;19997;-75
2022/03/23 13:11:16;;;;;;;;;;;;;;;24.66;10.35;101140.69;4440602;32;19996;-74
2022/03/23 13:13:44;;;;;;;;;;;;;;;24.56;10.25;101135.59;4433465;32;19995;-75
2022/03/23 13:16:12;;;;;;;;;;;;;;;23.70;10.86;101131.03;4441410;32;20051;-75